Time;durP1;ratioP1;P1;durP2;ratioP2;P2;SDS_P1;SDS_P2;PMS_P1;PMS_P2;Temp;Humidity;BMP_temperature;BMP_pressure;BME280_temperature;BME280_humidity;BME280_pressure;Samples;Min_cycle;Max_cycle;Signal;HPM_P1;HPM_P2
2022/04/26 03:37:26;;;;;;;40.42;19.67;;;;;;;;;;4982475;28;20502;-69
2022/04/26 03:39:52;;;;;;;370.10;27.70;;;;;;;;;;4983512;28;20085;-70
2022/04/26 03:42:17;;;;;;;344.27;28.38;;;;;;;;;;4982407;28;20030;-70
2022/04/26 03:44:43;;;;;;;267.38;27.13;;;;;;;;;;4983429;28;20035;-70
2022/04/26 03:47:08;;;;;;;36.28;22.42;;;;;;;;;;4978823;28;20057;-70
2022/04/26 03:49:35;;;;;;;41.50;21.33;;;;;;;;;;4982560;28;20069;-70
2022/04/26 03:52:00;;;;;;;60.95;22.80;;;;;;;;;;4982448;28;20042;-71
2022/04/26 03:54:26;;;;;;;42.28;22.35;;;;;;;;;;4983049;28;20335;-71
2022/04/26 03:56:51;;;;;;;96.45;23.77;;;;;;;;;;4982905;28;20041;-71
2022/04/26 03:59:19;;;;;;;42.03;22.00;;;;;;;;;;4979650;28;20088;-70
2022/04/26 04:01:45;;;;;;;36.60;23.42;;;;;;;;;;4981521;28;20117;-71
2022/04/26 04:04:10;;;;;;;101.68;22.55;;;;;;;;;;4982434;28;20045;-70
2022/04/26 04:06:36;;;;;;;350.63;28.67;;;;;;;;;;4980573;28;20034;-70
2022/04/26 04:09:02;;;;;;;49.70;22.20;;;;;;;;;;4980979;28;20077;-69
2022/04/26 04:11:28;;;;;;;34.50;21.45;;;;;;;;;;4978908;28;20084;-70
2022/04/26 04:13:53;;;;;;;37.60;22.40;;;;;;;;;;4981995;28;20403;-70
2022/04/26 04:16:19;;;;;;;36.20;23.10;;;;;;;;;;4982377;28;20037;-69
2022/04/26 04:21:28;;;;;;;46.72;27.40;;;;;;;;;;4981276;28;20041;-70
2022/04/26 04:23:54;;;;;;;48.92;26.90;;;;;;;;;;4982361;28;20034;-70
2022/04/26 04:26:19;;;;;;;49.50;27.67;;;;;;;;;;4982444;28;20085;-69
2022/04/26 04:28:45;;;;;;;48.40;25.60;;;;;;;;;;4982492;28;20054;-71
2022/04/26 04:31:11;;;;;;;45.42;26.40;;;;;;;;;;4980502;28;20473;-68
2022/04/26 04:33:37;;;;;;;61.25;27.05;;;;;;;;;;4982266;28;20045;-70
2022/04/26 04:36:03;;;;;;;93.07;32.38;;;;;;;;;;4981555;28;20042;-70
2022/04/26 04:38:29;;;;;;;88.38;33.97;;;;;;;;;;4981920;28;20066;-71
2022/04/26 04:40:54;;;;;;;98.13;36.08;;;;;;;;;;4981095;28;20073;-70
2022/04/26 04:43:20;;;;;;;84.07;34.67;;;;;;;;;;4981191;28;20053;-70
2022/04/26 04:45:47;;;;;;;80.93;34.05;;;;;;;;;;4982023;28;20403;-70
2022/04/26 04:48:12;;;;;;;87.40;34.92;;;;;;;;;;4981858;28;20138;-70
2022/04/26 04:50:38;;;;;;;109.93;38.85;;;;;;;;;;4981521;28;20546;-70
2022/04/26 04:53:03;;;;;;;94.80;37.15;;;;;;;;;;4980572;28;20044;-70
2022/04/26 04:55:29;;;;;;;85.93;37.10;;;;;;;;;;4986901;28;20042;-70
2022/04/26 04:57:54;;;;;;;73.97;34.10;;;;;;;;;;4981247;28;20038;-70
2022/04/26 05:00:20;;;;;;;63.13;32.22;;;;;;;;;;4981635;28;20042;-69
2022/04/26 05:02:45;;;;;;;52.85;28.95;;;;;;;;;;4981044;28;20096;-70
2022/04/26 05:05:12;;;;;;;49.63;28.70;;;;;;;;;;4981042;28;20125;-70
2022/04/26 05:07:37;;;;;;;53.17;28.38;;;;;;;;;;4979436;28;20349;-69
2022/04/26 05:10:04;;;;;;;58.65;30.15;;;;;;;;;;4981819;28;20589;-70
2022/04/26 05:12:30;;;;;;;52.05;27.85;;;;;;;;;;4980926;28;20120;-70
2022/04/26 05:14:55;;;;;;;52.35;27.23;;;;;;;;;;4977101;28;20155;-69
2022/04/26 05:17:21;;;;;;;46.72;26.73;;;;;;;;;;4978841;28;20521;-69
2022/04/26 05:19:46;;;;;;;51.15;27.13;;;;;;;;;;4975565;28;20070;-66
2022/04/26 05:22:11;;;;;;;48.30;28.40;;;;;;;;;;4980124;28;20026;-70
2022/04/26 05:24:53;;;;;;;70.43;32.70;;;;;;;;;;4962631;28;20398;-69
2022/04/26 05:27:20;;;;;;;63.05;31.45;;;;;;;;;;4978188;28;20046;-70
2022/04/26 05:29:45;;;;;;;59.95;29.20;;;;;;;;;;4979223;28;20177;-69
2022/04/26 05:32:10;;;;;;;57.63;28.77;;;;;;;;;;4978989;28;20733;-70
2022/04/26 05:34:36;;;;;;;68.38;30.98;;;;;;;;;;4980271;28;20039;-70
2022/04/26 05:37:01;;;;;;;62.03;31.35;;;;;;;;;;4980341;28;20046;-69
2022/04/26 05:39:27;;;;;;;70.68;33.03;;;;;;;;;;4981055;28;20045;-69
2022/04/26 05:41:52;;;;;;;113.65;37.53;;;;;;;;;;4980509;28;20734;-69
2022/04/26 05:44:17;;;;;;;95.03;35.53;;;;;;;;;;4980736;28;20042;-69
2022/04/26 05:46:43;;;;;;;69.75;34.72;;;;;;;;;;4981207;28;20046;-70
2022/04/26 05:49:08;;;;;;;59.85;31.40;;;;;;;;;;4979976;28;20050;-69
2022/04/26 05:51:34;;;;;;;64.50;32.30;;;;;;;;;;4980513;28;20133;-70
2022/04/26 05:53:59;;;;;;;60.70;28.75;;;;;;;;;;4981187;28;20030;-69
2022/04/26 05:56:24;;;;;;;56.97;28.85;;;;;;;;;;4980897;28;20455;-72
2022/04/26 05:58:50;;;;;;;80.38;29.95;;;;;;;;;;4978929;28;20053;-70
2022/04/26 06:01:16;;;;;;;52.03;28.90;;;;;;;;;;4978537;28;20034;-70
2022/04/26 06:03:42;;;;;;;49.78;28.63;;;;;;;;;;4979926;28;20406;-70
2022/04/26 06:06:08;;;;;;;54.35;28.98;;;;;;;;;;4979209;28;20583;-70
2022/04/26 06:08:34;;;;;;;45.78;26.70;;;;;;;;;;4978889;28;20125;-69
2022/04/26 06:10:59;;;;;;;50.83;28.33;;;;;;;;;;4977996;28;20038;-69
2022/04/26 06:13:25;;;;;;;49.03;27.33;;;;;;;;;;4979366;28;20042;-70
2022/04/26 06:15:50;;;;;;;39.72;23.67;;;;;;;;;;4978468;28;20169;-69
2022/04/26 06:18:16;;;;;;;65.18;31.23;;;;;;;;;;4977436;28;20342;-69
2022/04/26 06:20:41;;;;;;;36.25;21.83;;;;;;;;;;4979712;28;20041;-70
2022/04/26 06:23:06;;;;;;;37.63;22.20;;;;;;;;;;4980329;28;20046;-70
2022/04/26 06:25:36;;;;;;;32.28;20.92;;;;;;;;;;4962444;28;20068;-70
2022/04/26 06:28:06;;;;;;;30.50;19.40;;;;;;;;;;4981232;28;20042;-71
2022/04/26 06:30:32;;;;;;;29.42;18.25;;;;;;;;;;4980991;28;20050;-70
2022/04/26 06:32:57;;;;;;;33.50;20.75;;;;;;;;;;4980893;28;20034;-72
2022/04/26 06:35:23;;;;;;;32.15;21.45;;;;;;;;;;4983434;28;20034;-70
2022/04/26 06:37:48;;;;;;;34.15;21.40;;;;;;;;;;4984374;28;20046;-72
2022/04/26 06:40:14;;;;;;;32.63;20.35;;;;;;;;;;4984446;28;20127;-71
2022/04/26 06:42:39;;;;;;;33.20;21.70;;;;;;;;;;4983506;28;20406;-70
2022/04/26 06:45:05;;;;;;;34.28;22.13;;;;;;;;;;4984202;28;20033;-70
2022/04/26 06:47:30;;;;;;;31.65;20.60;;;;;;;;;;4983600;28;20407;-71
2022/04/26 06:49:56;;;;;;;29.25;19.42;;;;;;;;;;4983905;28;20044;-71
2022/04/26 06:52:22;;;;;;;27.73;18.92;;;;;;;;;;4983628;28;20034;-71
2022/04/26 06:54:47;;;;;;;28.40;18.67;;;;;;;;;;4983476;28;20042;-71
2022/04/26 06:57:13;;;;;;;24.30;17.65;;;;;;;;;;4982944;28;20064;-71
2022/04/26 06:59:41;;;;;;;33.58;21.08;;;;;;;;;;4983887;28;20740;-71
2022/04/26 07:02:07;;;;;;;27.92;18.85;;;;;;;;;;4983204;28;20031;-71
2022/04/26 07:04:33;;;;;;;28.27;18.75;;;;;;;;;;4982719;28;20061;-71
2022/04/26 07:06:58;;;;;;;28.80;19.38;;;;;;;;;;4983560;28;20902;-71
2022/04/26 07:09:24;;;;;;;31.67;21.23;;;;;;;;;;4983208;28;20128;-71
2022/04/26 07:11:49;;;;;;;32.80;20.42;;;;;;;;;;4982714;28;20038;-72
2022/04/26 07:14:14;;;;;;;34.10;22.60;;;;;;;;;;4983318;28;20042;-71
2022/04/26 07:16:40;;;;;;;33.33;21.83;;;;;;;;;;4983348;28;20042;-71
2022/04/26 07:19:06;;;;;;;29.05;18.85;;;;;;;;;;4982844;28;20093;-71
2022/04/26 07:21:32;;;;;;;28.55;19.52;;;;;;;;;;4982753;28;20046;-71
2022/04/26 07:23:57;;;;;;;30.55;19.63;;;;;;;;;;4983835;28;20030;-72
2022/04/26 07:26:23;;;;;;;21.85;15.25;;;;;;;;;;4982793;28;20122;-71
2022/04/26 07:28:48;;;;;;;23.52;16.98;;;;;;;;;;4982650;28;20034;-72
2022/04/26 07:31:14;;;;;;;20.98;15.45;;;;;;;;;;4982597;28;20035;-72
2022/04/26 07:36:23;;;;;;;15.88;12.05;;;;;;;;;;4982619;28;20073;-72
2022/04/26 07:38:49;;;;;;;14.52;11.60;;;;;;;;;;4982362;28;20038;-72
2022/04/26 07:41:15;;;;;;;13.15;9.93;;;;;;;;;;4982147;28;20080;-72
2022/04/26 07:43:41;;;;;;;14.88;10.45;;;;;;;;;;4982663;28;20479;-73
2022/04/26 07:46:07;;;;;;;14.25;10.30;;;;;;;;;;4982159;28;20081;-71
2022/04/26 07:48:34;;;;;;;13.15;10.25;;;;;;;;;;4981822;28;20068;-72
2022/04/26 07:51:00;;;;;;;14.05;10.65;;;;;;;;;;4981567;28;20046;-72
2022/04/26 07:53:26;;;;;;;11.43;9.55;;;;;;;;;;4983297;28;20034;-72
2022/04/26 07:55:52;;;;;;;12.48;10.07;;;;;;;;;;4982889;28;20038;-72
2022/04/26 07:58:17;;;;;;;15.45;9.80;;;;;;;;;;4982754;28;20041;-72
2022/04/26 08:00:43;;;;;;;10.90;8.88;;;;;;;;;;4981315;28;20118;-70
2022/04/26 08:03:08;;;;;;;12.38;9.85;;;;;;;;;;4982089;28;20053;-70
2022/04/26 08:05:34;;;;;;;14.45;9.30;;;;;;;;;;4982664;28;20030;-70
2022/04/26 08:07:59;;;;;;;11.02;8.57;;;;;;;;;;4982669;28;20045;-70
2022/04/26 08:10:25;;;;;;;11.68;8.93;;;;;;;;;;4981501;28;20038;-70
2022/04/26 08:12:50;;;;;;;11.55;8.95;;;;;;;;;;4981354;28;20620;-71
2022/04/26 08:15:18;;;;;;;10.27;8.50;;;;;;;;;;4979858;28;20049;-72
2022/04/26 08:17:44;;;;;;;11.95;9.55;;;;;;;;;;4982303;28;20042;-69
2022/04/26 08:20:10;;;;;;;9.98;8.65;;;;;;;;;;4981705;28;20563;-71
2022/04/26 08:22:37;;;;;;;11.52;8.23;;;;;;;;;;4980198;28;20038;-71
2022/04/26 08:27:47;;;;;;;9.65;7.55;;;;;;;;;;4981884;28;20034;-71
2022/04/26 08:30:14;;;;;;;6.72;5.82;;;;;;;;;;4982053;28;21094;-69
2022/04/26 08:32:40;;;;;;;6.22;4.68;;;;;;;;;;4980223;28;20039;-70
2022/04/26 08:35:07;;;;;;;5.57;5.00;;;;;;;;;;4981520;28;20133;-73
2022/04/26 08:37:34;;;;;;;5.22;4.15;;;;;;;;;;4982244;28;20161;-72
2022/04/26 08:39:59;;;;;;;3.10;2.80;;;;;;;;;;4980566;28;20038;-72
2022/04/26 08:42:35;;;;;;;3.42;3.05;;;;;;;;;;4981378;28;20905;-71
2022/04/26 08:45:03;;;;;;;3.65;3.22;;;;;;;;;;4980500;28;20054;-71
2022/04/26 08:52:58;;;;;;;3.35;3.08;;;;;;;;;;4981279;28;20046;-70
2022/04/26 08:55:23;;;;;;;2.80;2.60;;;;;;;;;;4979719;28;20046;-71
2022/04/26 08:57:49;;;;;;;4.05;3.10;;;;;;;;;;4981894;28;20085;-71
2022/04/26 09:00:15;;;;;;;3.20;2.90;;;;;;;;;;4981532;28;20514;-72
2022/04/26 09:02:40;;;;;;;3.13;2.85;;;;;;;;;;4981437;28;20038;-71
2022/04/26 09:05:14;;;;;;;3.33;2.80;;;;;;;;;;4980220;28;20038;-72
2022/04/26 09:07:41;;;;;;;7.28;3.00;;;;;;;;;;4981463;28;20038;-70
2022/04/26 09:10:09;;;;;;;3.08;2.78;;;;;;;;;;4981001;28;20058;-71
2022/04/26 09:12:57;;;;;;;3.47;2.75;;;;;;;;;;4981203;28;21129;-71
2022/04/26 09:15:22;;;;;;;3.63;2.70;;;;;;;;;;4980475;28;20038;-70
2022/04/26 09:17:48;;;;;;;4.82;2.22;;;;;;;;;;4980336;28;20053;-70
2022/04/26 09:20:13;;;;;;;2.53;2.33;;;;;;;;;;4981098;28;20026;-71
2022/04/26 09:22:39;;;;;;;3.10;2.63;;;;;;;;;;4981161;28;20041;-70
2022/04/26 09:25:08;;;;;;;3.25;2.95;;;;;;;;;;4981341;28;20896;-71
2022/04/26 09:27:38;;;;;;;2.85;2.58;;;;;;;;;;4979635;28;20030;-71
2022/04/26 09:30:09;;;;;;;2.83;2.63;;;;;;;;;;4979333;28;20157;-71
2022/04/26 09:32:49;;;;;;;2.65;2.45;;;;;;;;;;4978777;28;20439;-70
2022/04/26 09:35:22;;;;;;;2.83;2.53;;;;;;;;;;4978484;28;20045;-70
2022/04/26 09:37:48;;;;;;;3.63;2.72;;;;;;;;;;4978822;28;20042;-70
2022/04/26 09:40:13;;;;;;;2.97;2.63;;;;;;;;;;4981147;28;20040;-71
2022/04/26 09:42:39;;;;;;;2.90;2.60;;;;;;;;;;4980775;28;20049;-70
2022/04/26 09:45:06;;;;;;;2.85;2.38;;;;;;;;;;4980770;28;20063;-70
2022/04/26 09:47:39;;;;;;;2.33;2.15;;;;;;;;;;4980477;28;20034;-70
2022/04/26 09:50:15;;;;;;;2.67;2.47;;;;;;;;;;4980078;28;20125;-70
2022/04/26 09:52:41;;;;;;;2.33;1.90;;;;;;;;;;4980835;28;20034;-70
2022/04/26 09:55:09;;;;;;;2.20;2.00;;;;;;;;;;4981018;28;20065;-70
2022/04/26 09:57:36;;;;;;;5.80;2.10;;;;;;;;;;4981076;28;20116;-69
2022/04/26 10:00:09;;;;;;;2.97;2.67;;;;;;;;;;4979334;28;20057;-69
2022/04/26 10:02:38;;;;;;;2.72;2.10;;;;;;;;;;4980482;28;20049;-70
2022/04/26 10:05:07;;;;;;;3.75;2.15;;;;;;;;;;4980703;28;20403;-69
2022/04/26 10:07:36;;;;;;;2.38;1.92;;;;;;;;;;4979765;28;20140;-70
2022/04/26 10:10:03;;;;;;;2.30;1.83;;;;;;;;;;4980431;28;20042;-70
2022/04/26 10:12:30;;;;;;;2.25;2.05;;;;;;;;;;4977823;28;20173;-71
2022/04/26 10:14:56;;;;;;;3.17;1.75;;;;;;;;;;4980728;28;20057;-72
2022/04/26 10:17:21;;;;;;;4.20;2.10;;;;;;;;;;4980500;28;20482;-71
2022/04/26 10:19:47;;;;;;;1.98;1.88;;;;;;;;;;4980087;28;20065;-72
2022/04/26 10:22:17;;;;;;;2.20;2.00;;;;;;;;;;4979451;28;20050;-71
2022/04/26 10:25:09;;;;;;;2.13;1.92;;;;;;;;;;4981029;28;20486;-71
2022/04/26 10:27:34;;;;;;;7.28;2.85;;;;;;;;;;4980736;28;20045;-71
2022/04/26 10:30:00;;;;;;;2.90;2.60;;;;;;;;;;4980120;28;20030;-71
2022/04/26 10:32:34;;;;;;;5.10;3.28;;;;;;;;;;4978529;28;22076;-71
2022/04/26 10:35:25;;;;;;;2.78;2.55;;;;;;;;;;4980351;28;20046;-71
2022/04/26 10:38:12;;;;;;;2.38;2.17;;;;;;;;;;4980699;28;20034;-70
2022/04/26 10:41:03;;;;;;;2.30;2.10;;;;;;;;;;4979448;28;21016;-69
2022/04/26 10:43:29;;;;;;;2.83;2.13;;;;;;;;;;4971192;28;20058;-70
2022/04/26 10:46:15;;;;;;;1.90;1.77;;;;;;;;;;4979860;28;20053;-71
2022/04/26 10:48:41;;;;;;;4.03;1.58;;;;;;;;;;4980385;28;20077;-72
2022/04/26 10:51:35;;;;;;;1.30;1.20;;;;;;;;;;4979535;28;20104;-70
2022/04/26 10:54:02;;;;;;;1.83;1.35;;;;;;;;;;4980513;28;20458;-71
2022/04/26 10:56:28;;;;;;;3.42;1.67;;;;;;;;;;4979263;28;20038;-70
2022/04/26 10:58:54;;;;;;;2.58;1.73;;;;;;;;;;4980123;28;20042;-71
2022/04/26 11:01:24;;;;;;;2.20;1.58;;;;;;;;;;4979651;28;20039;-72
2022/04/26 11:03:57;;;;;;;1.50;1.40;;;;;;;;;;4979473;28;20680;-72
2022/04/26 11:06:32;;;;;;;1.00;1.00;;;;;;;;;;4979251;28;20026;-71
2022/04/26 11:09:11;;;;;;;1.30;1.20;;;;;;;;;;4979655;28;20031;-72
2022/04/26 11:11:54;;;;;;;1.20;1.10;;;;;;;;;;4979744;28;20133;-71
2022/04/26 11:14:20;;;;;;;1.73;1.63;;;;;;;;;;4979454;28;20035;-71
2022/04/26 11:17:00;;;;;;;2.00;1.80;;;;;;;;;;4979584;28;20073;-73
2022/04/26 11:19:33;;;;;;;3.03;1.50;;;;;;;;;;4982133;28;20040;-71
2022/04/26 11:22:06;;;;;;;1.85;1.35;;;;;;;;;;4983006;28;20113;-72
2022/04/26 11:30:00;;;;;;;1.83;1.42;;;;;;;;;;4983170;28;20048;-72
2022/04/26 11:32:42;;;;;;;2.00;1.77;;;;;;;;;;4982896;28;20022;-70
2022/04/26 11:35:09;;;;;;;1.50;1.40;;;;;;;;;;4982734;28;20484;-72
2022/04/26 11:38:10;;;;;;;2.03;1.45;;;;;;;;;;4982582;28;20108;-71
2022/04/26 11:40:41;;;;;;;3.95;1.65;;;;;;;;;;4975622;28;20057;-71
2022/04/26 11:43:11;;;;;;;2.20;1.95;;;;;;;;;;4982554;28;20034;-70
2022/04/26 11:45:39;;;;;;;2.45;1.70;;;;;;;;;;4982021;28;20112;-73
2022/04/26 11:48:08;;;;;;;4.18;1.50;;;;;;;;;;4982509;28;20038;-71
2022/04/26 11:50:34;;;;;;;1.90;1.40;;;;;;;;;;4981249;28;20145;-72
2022/04/26 11:53:05;;;;;;;1.30;1.10;;;;;;;;;;4981763;28;20048;-72
2022/04/26 11:55:37;;;;;;;1.27;1.17;;;;;;;;;;4981517;28;20045;-70
2022/04/26 11:58:15;;;;;;;;;;;;;;;;;;4982804;28;20046;-72
2022/04/26 12:00:55;;;;;;;1.20;1.10;;;;;;;;;;4980852;28;19991;-70
2022/04/26 12:03:23;;;;;;;0.90;0.90;;;;;;;;;;4982092;28;20046;-71
2022/04/26 12:05:55;;;;;;;0.70;0.70;;;;;;;;;;4982434;28;20100;-69
2022/04/26 12:08:21;;;;;;;1.33;0.90;;;;;;;;;;4982143;28;20471;-69
2022/04/26 12:10:48;;;;;;;1.48;1.38;;;;;;;;;;4983007;28;20049;-71
2022/04/26 12:13:14;;;;;;;1.45;1.35;;;;;;;;;;4980955;28;20042;-72
2022/04/26 12:15:40;;;;;;;2.08;1.75;;;;;;;;;;4982873;28;20077;-70
2022/04/26 12:18:13;;;;;;;2.28;1.58;;;;;;;;;;4981705;28;20042;-72
2022/04/26 12:21:02;;;;;;;2.00;1.83;;;;;;;;;;4982346;28;20064;-69
2022/04/26 12:23:30;;;;;;;3.85;2.10;;;;;;;;;;4980617;28;20053;-71
2022/04/26 12:26:00;;;;;;;2.90;2.00;;;;;;;;;;4982111;28;20049;-72
2022/04/26 12:28:25;;;;;;;4.03;1.98;;;;;;;;;;4981537;28;20038;-70
2022/04/26 12:30:51;;;;;;;2.30;2.10;;;;;;;;;;4981980;28;20030;-72
2022/04/26 12:33:29;;;;;;;2.92;2.10;;;;;;;;;;4980605;28;20037;-71
2022/04/26 12:36:04;;;;;;;2.83;2.20;;;;;;;;;;4982157;28;20038;-72
2022/04/26 12:38:30;;;;;;;1.90;1.80;;;;;;;;;;4981517;28;20483;-73
2022/04/26 12:41:00;;;;;;;2.63;2.20;;;;;;;;;;4982771;28;20068;-72
2022/04/26 12:43:28;;;;;;;4.47;1.70;;;;;;;;;;4981262;28;20042;-73
2022/04/26 12:45:58;;;;;;;1.70;1.60;;;;;;;;;;4980899;28;20038;-72
2022/04/26 12:51:20;;;;;;;1.40;1.30;;;;;;;;;;4978734;28;20481;-72
2022/04/26 12:53:47;;;;;;;2.67;1.98;;;;;;;;;;4980526;28;20046;-72
2022/04/26 12:56:13;;;;;;;3.22;2.08;;;;;;;;;;4980181;28;20120;-71
2022/04/26 12:58:44;;;;;;;1.58;1.48;;;;;;;;;;4981106;28;20112;-71
2022/04/26 13:01:10;;;;;;;1.52;1.42;;;;;;;;;;4980506;28;20030;-72
2022/04/26 13:03:37;;;;;;;2.70;2.22;;;;;;;;;;4977908;28;20124;-72
2022/04/26 13:06:18;;;;;;;7.13;1.70;;;;;;;;;;4980705;28;20057;-71
2022/04/26 13:08:48;;;;;;;2.13;1.97;;;;;;;;;;4977350;28;20061;-73
2022/04/26 13:11:17;;;;;;;4.38;2.03;;;;;;;;;;4979512;28;20121;-74
2022/04/26 13:13:46;;;;;;;3.17;2.42;;;;;;;;;;4980016;28;20046;-71
2022/04/26 13:16:12;;;;;;;2.10;1.70;;;;;;;;;;4980057;28;20044;-73
2022/04/26 13:18:38;;;;;;;4.60;2.38;;;;;;;;;;4978639;28;20065;-73
2022/04/26 13:21:05;;;;;;;1.98;1.75;;;;;;;;;;4979688;28;20030;-73
2022/04/26 13:23:33;;;;;;;2.40;2.20;;;;;;;;;;4980528;28;20038;-72
2022/04/26 13:26:00;;;;;;;1.67;1.58;;;;;;;;;;4981863;28;20033;-73
2022/04/26 13:28:25;;;;;;;4.10;3.10;;;;;;;;;;4980163;28;20495;-74
2022/04/26 13:30:51;;;;;;;6.13;2.22;;;;;;;;;;4981209;28;20038;-72
2022/04/26 13:33:17;;;;;;;3.58;2.72;;;;;;;;;;4979798;28;20057;-72
2022/04/26 13:35:42;;;;;;;5.55;2.97;;;;;;;;;;4981823;28;20046;-72
2022/04/26 13:38:12;;;;;;;4.28;2.72;;;;;;;;;;4981451;28;20042;-72
2022/04/26 13:40:38;;;;;;;1.75;1.65;;;;;;;;;;4980570;28;20089;-72
2022/04/26 13:43:08;;;;;;;3.10;1.98;;;;;;;;;;4978860;28;20554;-72
2022/04/26 13:45:34;;;;;;;1.75;1.40;;;;;;;;;;4981462;28;20058;-72
2022/04/26 13:48:03;;;;;;;2.28;2.08;;;;;;;;;;4981121;28;20136;-71
2022/04/26 13:50:33;;;;;;;1.60;1.30;;;;;;;;;;4980299;28;20498;-73
2022/04/26 13:52:59;;;;;;;2.22;1.50;;;;;;;;;;4977443;28;20042;-73
2022/04/26 13:55:26;;;;;;;1.92;1.23;;;;;;;;;;4979383;28;20395;-71
2022/04/26 13:57:54;;;;;;;1.88;0.98;;;;;;;;;;4981131;28;20042;-72
2022/04/26 14:00:20;;;;;;;2.70;1.20;;;;;;;;;;4980910;28;20042;-71
2022/04/26 14:02:46;;;;;;;1.25;1.02;;;;;;;;;;4979402;28;20034;-73
2022/04/26 14:05:12;;;;;;;1.17;1.08;;;;;;;;;;4980170;28;20250;-71
2022/04/26 14:07:38;;;;;;;0.80;0.80;;;;;;;;;;4980592;28;20045;-72
2022/04/26 14:10:04;;;;;;;3.50;1.10;;;;;;;;;;4981014;28;20038;-71
2022/04/26 14:12:29;;;;;;;0.93;0.90;;;;;;;;;;4979422;28;20541;-73
2022/04/26 14:23:07;;;;;;;0.70;0.70;;;;;;;;;;4979929;28;20033;-72
2022/04/26 14:25:32;;;;;;;0.75;0.68;;;;;;;;;;4980145;28;20090;-73
2022/04/26 14:27:58;;;;;;;0.60;0.55;;;;;;;;;;4976966;28;20057;-72
2022/04/26 14:30:23;;;;;;;3.08;0.90;;;;;;;;;;4980502;28;20049;-72
2022/04/26 14:32:49;;;;;;;0.75;0.75;;;;;;;;;;4980340;28;20089;-71
2022/04/26 14:35:15;;;;;;;2.45;0.80;;;;;;;;;;4979427;28;20042;-72
2022/04/26 14:37:41;;;;;;;0.77;0.77;;;;;;;;;;4980450;28;20042;-72
2022/04/26 14:40:09;;;;;;;2.08;1.00;;;;;;;;;;4980073;28;20046;-71
2022/04/26 14:42:35;;;;;;;1.30;1.15;;;;;;;;;;4979233;28;20491;-71
2022/04/26 14:45:00;;;;;;;1.10;1.00;;;;;;;;;;4977553;28;20073;-71
2022/04/26 14:47:26;;;;;;;2.30;1.13;;;;;;;;;;4976999;28;20125;-71
2022/04/26 14:49:59;;;;;;;1.17;1.10;;;;;;;;;;4977715;28;20085;-70
2022/04/26 14:52:24;;;;;;;1.13;1.00;;;;;;;;;;4979091;28;20069;-70
2022/04/26 14:54:51;;;;;;;2.08;1.10;;;;;;;;;;4980914;28;20068;-70
2022/04/26 14:57:17;;;;;;;0.90;0.90;;;;;;;;;;4981134;28;20037;-70
2022/04/26 14:59:47;;;;;;;1.17;1.08;;;;;;;;;;4982641;28;20382;-71
2022/04/26 15:02:17;;;;;;;1.38;1.13;;;;;;;;;;4981895;28;20065;-71
2022/04/26 15:04:44;;;;;;;1.00;1.00;;;;;;;;;;4981210;28;20057;-71
2022/04/26 15:07:09;;;;;;;0.82;0.82;;;;;;;;;;4981039;28;20050;-70
2022/04/26 15:09:45;;;;;;;2.83;1.20;;;;;;;;;;4982883;28;20147;-70
2022/04/26 15:17:48;;;;;;;1.33;1.13;;;;;;;;;;4981830;28;20369;-70
2022/04/26 15:20:15;;;;;;;1.05;1.02;;;;;;;;;;4981652;28;20039;-70
2022/04/26 15:22:41;;;;;;;1.23;1.13;;;;;;;;;;4982073;28;20084;-71
2022/04/26 15:25:09;;;;;;;2.88;1.92;;;;;;;;;;4982408;28;20901;-70
2022/04/26 15:27:37;;;;;;;1.70;1.25;;;;;;;;;;4982764;28;21134;-70
2022/04/26 15:30:04;;;;;;;1.42;1.33;;;;;;;;;;4981355;28;20050;-70
2022/04/26 15:32:30;;;;;;;1.40;1.30;;;;;;;;;;4982092;28;20121;-70
2022/04/26 15:34:55;;;;;;;1.48;1.33;;;;;;;;;;4964453;28;20038;-70
2022/04/26 15:37:24;;;;;;;3.03;1.40;;;;;;;;;;4981272;28;20487;-70
2022/04/26 15:39:50;;;;;;;1.98;1.63;;;;;;;;;;4979780;28;20092;-70
2022/04/26 15:42:18;;;;;;;3.10;1.42;;;;;;;;;;4978759;28;20026;-70
2022/04/26 15:44:43;;;;;;;0.98;0.93;;;;;;;;;;4979762;28;20038;-70
2022/04/26 15:47:09;;;;;;;1.95;1.85;;;;;;;;;;4979888;28;20045;-71
2022/04/26 15:49:34;;;;;;;2.50;1.98;;;;;;;;;;4980508;28;20038;-71
2022/04/26 15:52:00;;;;;;;1.67;1.58;;;;;;;;;;4979067;28;20619;-71
2022/04/26 15:54:25;;;;;;;2.15;1.80;;;;;;;;;;4981322;28;20116;-72
2022/04/26 15:56:50;;;;;;;4.40;1.83;;;;;;;;;;4980042;28;20849;-70
2022/04/26 15:59:16;;;;;;;2.58;1.83;;;;;;;;;;4980725;28;20038;-70
2022/04/26 16:01:41;;;;;;;1.75;1.65;;;;;;;;;;4980821;28;20928;-70
2022/04/26 16:04:09;;;;;;;1.90;1.70;;;;;;;;;;4979465;28;20041;-71
2022/04/26 16:06:37;;;;;;;2.17;1.70;;;;;;;;;;4979519;28;20038;-71
2022/04/26 16:22:42;;;;;;;1.92;1.70;;;;;;;;;;4979330;28;20371;-71
2022/04/26 16:25:08;;;;;;;4.30;1.70;;;;;;;;;;4979231;28;20034;-70
2022/04/26 16:27:33;;;;;;;2.85;2.00;;;;;;;;;;4981448;28;20049;-71
2022/04/26 16:30:00;;;;;;;2.20;1.98;;;;;;;;;;4981737;28;20554;-71
2022/04/26 16:32:27;;;;;;;3.03;2.25;;;;;;;;;;4980806;28;20042;-70
2022/04/26 16:34:53;;;;;;;2.30;2.10;;;;;;;;;;4980880;28;20038;-71
2022/04/26 16:37:19;;;;;;;6.82;2.60;;;;;;;;;;4979503;28;20439;-71
2022/04/26 16:39:44;;;;;;;3.53;2.42;;;;;;;;;;4981248;28;20045;-70
2022/04/26 16:42:10;;;;;;;2.92;2.55;;;;;;;;;;4980052;28;20042;-70
2022/04/26 16:44:35;;;;;;;3.08;2.63;;;;;;;;;;4981327;28;20046;-70
2022/04/26 16:47:01;;;;;;;4.00;2.65;;;;;;;;;;4978543;28;20129;-71
2022/04/26 16:49:26;;;;;;;3.47;2.47;;;;;;;;;;4980830;28;20034;-71
2022/04/26 16:51:51;;;;;;;2.92;2.58;;;;;;;;;;4980938;28;20069;-70
2022/04/26 16:54:18;;;;;;;4.68;2.55;;;;;;;;;;4981518;28;20031;-71
2022/04/26 16:56:44;;;;;;;4.82;2.83;;;;;;;;;;4981691;28;20089;-70
2022/04/26 16:59:09;;;;;;;2.83;2.53;;;;;;;;;;4977653;28;20046;-70
2022/04/26 17:01:35;;;;;;;3.28;2.80;;;;;;;;;;4980857;28;20085;-70
2022/04/26 17:04:03;;;;;;;2.63;2.25;;;;;;;;;;4979609;28;20570;-71
2022/04/26 17:06:29;;;;;;;2.92;2.60;;;;;;;;;;4978654;28;20399;-70
2022/04/26 17:08:55;;;;;;;4.80;2.53;;;;;;;;;;4978981;28;20069;-70
2022/04/26 17:14:04;;;;;;;2.90;2.70;;;;;;;;;;4980118;28;20452;-72
2022/04/26 17:16:29;;;;;;;3.67;2.58;;;;;;;;;;4981000;28;21104;-70
2022/04/26 17:18:55;;;;;;;4.03;2.72;;;;;;;;;;4981327;28;20053;-70
2022/04/26 17:21:21;;;;;;;3.55;2.92;;;;;;;;;;4977040;28;20259;-71
2022/04/26 17:23:46;;;;;;;4.80;3.25;;;;;;;;;;4979158;28;20088;-70
2022/04/26 17:26:11;;;;;;;4.75;3.70;;;;;;;;;;4979927;28;20034;-72
2022/04/26 17:28:37;;;;;;;4.75;3.40;;;;;;;;;;4962634;28;20034;-72
2022/04/26 17:31:05;;;;;;;3.47;3.17;;;;;;;;;;4978278;28;20410;-71
2022/04/26 17:33:30;;;;;;;6.20;3.80;;;;;;;;;;4979180;28;20029;-71
2022/04/26 17:35:56;;;;;;;6.10;3.90;;;;;;;;;;4978454;28;20852;-72
2022/04/26 17:38:21;;;;;;;3.72;2.85;;;;;;;;;;4978445;28;20038;-71
2022/04/26 17:40:47;;;;;;;3.65;3.10;;;;;;;;;;4978126;28;20034;-71
2022/04/26 17:43:13;;;;;;;7.10;4.00;;;;;;;;;;4976868;28;20653;-71
2022/04/26 17:45:40;;;;;;;4.05;3.65;;;;;;;;;;4973812;28;20045;-74
2022/04/26 17:48:05;;;;;;;7.30;3.85;;;;;;;;;;4975604;28;20046;-74
2022/04/26 17:50:31;;;;;;;4.05;3.33;;;;;;;;;;4977911;28;20034;-71
2022/04/26 17:58:25;;;;;;;6.60;3.90;;;;;;;;;;4978521;28;20030;-70
2022/04/26 18:00:50;;;;;;;4.82;3.53;;;;;;;;;;4978748;28;20489;-70
2022/04/26 18:03:16;;;;;;;4.15;3.22;;;;;;;;;;4977533;28;20058;-71
2022/04/26 18:05:41;;;;;;;5.07;3.28;;;;;;;;;;4979255;28;20038;-71
2022/04/26 18:08:07;;;;;;;4.18;3.53;;;;;;;;;;4979044;28;20038;-72
2022/04/26 18:10:33;;;;;;;4.50;3.70;;;;;;;;;;4979760;28;20039;-71
2022/04/26 18:12:59;;;;;;;4.20;3.70;;;;;;;;;;4978557;28;20039;-70
2022/04/26 18:15:25;;;;;;;4.53;3.78;;;;;;;;;;4977864;28;20045;-70
2022/04/26 18:17:50;;;;;;;6.45;3.53;;;;;;;;;;4978194;28;20048;-70
2022/04/26 18:20:19;;;;;;;4.40;3.67;;;;;;;;;;4961779;28;20181;-70
2022/04/26 18:22:44;;;;;;;5.85;3.67;;;;;;;;;;4978366;28;20026;-69
2022/04/26 18:25:10;;;;;;;4.70;4.15;;;;;;;;;;4978762;28;20088;-70
2022/04/26 18:27:36;;;;;;;8.05;4.72;;;;;;;;;;4979011;28;20073;-70
2022/04/26 18:30:02;;;;;;;6.22;4.50;;;;;;;;;;4981846;28;20034;-70
2022/04/26 18:32:27;;;;;;;7.60;4.18;;;;;;;;;;4981717;28;20467;-70
2022/04/26 18:34:52;;;;;;;5.03;4.05;;;;;;;;;;4983417;28;20042;-70
2022/04/26 18:37:18;;;;;;;4.78;4.28;;;;;;;;;;4982733;28;20045;-70
2022/04/26 18:39:43;;;;;;;6.05;4.10;;;;;;;;;;4983801;28;20042;-70
2022/04/26 18:42:09;;;;;;;6.57;3.58;;;;;;;;;;4983367;28;20041;-70
2022/04/26 18:44:34;;;;;;;4.03;3.58;;;;;;;;;;4984625;28;20050;-69
2022/04/26 18:47:00;;;;;;;4.78;3.60;;;;;;;;;;4983413;28;20066;-69
2022/04/26 18:49:28;;;;;;;10.23;4.05;;;;;;;;;;4982843;28;20573;-69
2022/04/26 18:51:54;;;;;;;4.40;4.00;;;;;;;;;;4982937;28;20054;-68
2022/04/26 18:54:23;;;;;;;4.40;4.00;;;;;;;;;;4983194;28;20452;-69
2022/04/26 18:56:49;;;;;;;6.05;5.15;;;;;;;;;;4983389;28;20038;-69
2022/04/26 18:59:20;;;;;;;6.35;5.25;;;;;;;;;;4981176;28;20570;-68
2022/04/26 19:01:46;;;;;;;7.13;6.32;;;;;;;;;;4965894;28;20117;-71
2022/04/26 19:04:13;;;;;;;8.05;5.60;;;;;;;;;;4983069;28;20100;-70
2022/04/26 19:06:38;;;;;;;8.85;6.25;;;;;;;;;;4966811;28;20038;-69
2022/04/26 19:09:04;;;;;;;10.80;6.20;;;;;;;;;;4983468;28;20038;-70
2022/04/26 19:14:14;;;;;;;7.38;6.20;;;;;;;;;;4982612;28;20452;-69